Time;durP1;ratioP1;P1;durP2;ratioP2;P2;SDS_P1;SDS_P2;PMS_P1;PMS_P2;Temp;Humidity;BMP_temperature;BMP_pressure;BME280_temperature;BME280_humidity;BME280_pressure;Samples;Min_cycle;Max_cycle;Signal;HPM_P1;HPM_P2
2023/03/02 00:01:55;;;;;;;28.27;21.90;;;3.10;1.00;;;;;;5011233;28;20439;-78
2023/03/02 00:04:27;;;;;;;27.37;20.57;;;3.30;1.00;;;;;;5010514;28;20919;-78
2023/03/02 00:06:57;;;;;;;32.08;21.40;;;3.70;1.00;;;;;;5009740;28;20400;-78
2023/03/02 00:09:23;;;;;;;23.50;18.33;;;3.40;1.00;;;;;;5010622;28;20660;-78
2023/03/02 00:11:50;;;;;;;26.10;18.92;;;3.40;1.00;;;;;;5010929;28;20392;-78
2023/03/02 00:14:15;;;;;;;25.52;19.48;;;3.20;1.00;;;;;;5009692;28;20397;-78
2023/03/02 00:16:41;;;;;;;24.20;20.07;;;3.10;1.00;;;;;;5009393;28;20450;-78
2023/03/02 00:19:06;;;;;;;27.38;19.67;;;3.50;1.00;;;;;;5010745;28;20405;-78
2023/03/02 00:21:32;;;;;;;24.58;18.92;;;3.00;1.00;;;;;;5010721;28;20879;-77
2023/03/02 00:23:57;;;;;;;24.83;19.30;;;2.50;1.00;;;;;;5012716;28;20759;-78
2023/03/02 00:26:23;;;;;;;25.15;20.58;;;2.50;1.00;;;;;;5014010;28;20894;-78
2023/03/02 00:28:48;;;;;;;27.38;20.83;;;2.70;1.00;;;;;;5014165;28;20440;-78
2023/03/02 00:31:15;;;;;;;26.08;19.33;;;2.20;18.40;;;;;;5012536;28;20905;-77
2023/03/02 00:33:40;;;;;;;26.53;20.80;;;2.70;1.00;;;;;;5013848;28;20824;-78
2023/03/02 00:36:14;;;;;;;28.85;20.70;;;2.60;1.00;;;;;;5013027;28;20408;-78
2023/03/02 00:38:40;;;;;;;27.13;19.90;;;2.40;39.10;;;;;;5013862;28;20911;-77
2023/03/02 00:41:05;;;;;;;26.60;20.17;;;2.90;46.40;;;;;;5012667;28;20400;-78
2023/03/02 00:43:31;;;;;;;28.37;20.40;;;2.40;82.60;;;;;;5013903;28;20479;-77
2023/03/02 00:45:57;;;;;;;27.73;20.73;;;2.30;99.50;;;;;;5013706;28;20389;-77
2023/03/02 00:48:23;;;;;;;25.88;21.27;;;2.40;44.60;;;;;;5018626;28;20884;-77
2023/03/02 00:50:49;;;;;;;27.98;20.05;;;2.30;71.10;;;;;;5019005;28;20404;-77
2023/03/02 00:53:14;;;;;;;27.10;20.23;;;2.50;24.70;;;;;;5013458;28;20396;-78
2023/03/02 00:55:40;;;;;;;27.63;20.15;;;2.90;14.80;;;;;;5013565;28;20420;-78
2023/03/02 00:58:05;;;;;;;30.50;20.65;;;2.40;5.10;;;;;;5014712;28;20392;-78
2023/03/02 01:00:33;;;;;;;28.33;20.17;;;2.40;1.00;;;;;;5014442;28;20381;-78
2023/03/02 01:02:58;;;;;;;27.63;20.07;;;2.50;35.50;;;;;;5012974;28;20397;-78
2023/03/02 01:05:24;;;;;;;26.47;20.20;;;2.30;44.60;;;;;;5014061;28;20407;-78
2023/03/02 01:07:49;;;;;;;24.80;19.90;;;2.30;49.10;;;;;;5013601;28;20751;-78
2023/03/02 01:10:15;;;;;;;25.43;20.00;;;2.20;40.00;;;;;;5013905;28;20393;-78
2023/03/02 01:12:41;;;;;;;24.48;18.58;;;2.40;7.60;;;;;;5015226;28;20392;-78
2023/03/02 01:15:08;;;;;;;27.20;19.05;;;2.50;2.50;;;;;;5030375;28;20401;-77
2023/03/02 01:17:34;;;;;;;25.53;19.03;;;2.30;5.80;;;;;;5030118;28;20424;-78
2023/03/02 01:19:59;;;;;;;25.55;20.65;;;2.30;1.00;;;;;;5015306;28;20408;-78
2023/03/02 01:22:25;;;;;;;25.50;18.42;;;2.50;1.00;;;;;;5016288;28;20393;-78
2023/03/02 01:24:52;;;;;;;26.13;18.27;;;2.30;1.00;;;;;;5015615;28;20407;-78
2023/03/02 01:27:18;;;;;;;24.80;19.10;;;2.30;1.00;;;;;;5015841;28;20408;-79
2023/03/02 01:29:43;;;;;;;24.77;19.47;;;2.00;9.10;;;;;;5015831;28;20743;-78
2023/03/02 01:32:09;;;;;;;26.27;19.17;;;2.00;1.10;;;;;;5015249;28;20427;-78
2023/03/02 01:34:35;;;;;;;26.63;19.40;;;2.10;1.00;;;;;;5013361;28;20393;-79
2023/03/02 01:37:00;;;;;;;27.95;20.80;;;2.30;1.00;;;;;;5015022;28;20404;-78
2023/03/02 01:39:26;;;;;;;25.95;20.38;;;2.20;1.00;;;;;;5015096;28;20415;-78
2023/03/02 01:41:52;;;;;;;22.88;18.23;;;;;;;;;;5015172;28;20391;-78
2023/03/02 01:44:44;;;;;;;27.23;19.75;;;2.10;1.00;;;;;;5014729;28;20879;-78
2023/03/02 01:47:20;;;;;;;28.00;20.00;;;2.00;1.00;;;;;;5015051;28;20392;-78
2023/03/02 01:49:49;;;;;;;25.33;20.52;;;2.00;26.60;;;;;;5015316;28;20395;-78
2023/03/02 01:52:16;;;;;;;25.83;18.77;;;1.90;40.40;;;;;;5013712;28;20415;-78
2023/03/02 01:54:42;;;;;;;28.35;20.58;;;1.80;41.50;;;;;;5013795;28;20906;-78
2023/03/02 01:57:10;;;;;;;26.00;20.80;;;1.90;48.30;;;;;;5014644;28;20403;-79
2023/03/02 01:59:39;;;;;;;26.88;20.77;;;1.90;47.00;;;;;;5014790;28;20740;-78
2023/03/02 02:02:08;;;;;;;28.15;20.35;;;1.70;71.50;;;;;;5014702;28;21316;-78
2023/03/02 02:04:36;;;;;;;28.05;20.05;;;1.90;82.20;;;;;;5011097;28;20479;-78
2023/03/02 02:07:05;;;;;;;28.95;20.73;;;1.70;55.50;;;;;;5011661;28;20491;-78
2023/03/02 02:09:43;;;;;;;28.63;20.17;;;1.80;42.10;;;;;;5011606;28;20404;-78
2023/03/02 02:12:15;;;;;;;27.95;20.80;;;1.70;33.30;;;;;;5011907;28;20387;-78
2023/03/02 02:14:41;;;;;;;27.50;20.50;;;1.70;31.20;;;;;;5011554;28;20474;-78
2023/03/02 02:17:07;;;;;;;25.80;19.10;;;2.00;30.00;;;;;;5010266;28;20768;-78
2023/03/02 02:20:00;;;;;;;30.50;21.80;;;2.10;51.20;;;;;;5011836;28;20859;-78
2023/03/02 02:22:51;;;;;;;28.45;20.95;;;1.90;34.70;;;;;;5010985;28;20432;-78
2023/03/02 02:25:46;;;;;;;25.48;19.30;;;1.70;24.70;;;;;;5010234;28;20462;-78
2023/03/02 02:28:18;;;;;;;30.00;20.67;;;1.70;61.20;;;;;;5010622;28;20396;-78
2023/03/02 02:30:46;;;;;;;27.00;20.58;;;1.60;94.90;;;;;;5010752;28;20406;-78
2023/03/02 02:33:18;;;;;;;26.58;20.85;;;1.70;98.00;;;;;;5011942;28;20379;-78
2023/03/02 02:35:46;;;;;;;28.80;20.67;;;1.50;39.20;;;;;;5012022;28;20414;-79
2023/03/02 02:38:14;;;;;;;24.83;19.00;;;1.60;95.00;;;;;;5006024;28;20400;-78
2023/03/02 02:40:57;;;;;;;28.52;20.20;;;1.60;91.20;;;;;;5013064;28;20385;-78
2023/03/02 02:43:24;;;;;;;28.50;20.17;;;1.60;99.90;;;;;;5010845;28;20405;-78
2023/03/02 02:45:54;;;;;;;27.52;20.27;;;1.80;99.90;;;;;;5011377;28;20385;-78
2023/03/02 02:48:23;;;;;;;27.13;20.20;;;1.80;99.90;;;;;;5011310;28;20396;-77
2023/03/02 02:50:52;;;;;;;28.85;20.58;;;1.50;99.90;;;;;;5009494;28;20441;-77
2023/03/02 02:53:23;;;;;;;25.45;19.73;;;1.40;99.90;;;;;;5013938;28;20396;-77
2023/03/02 02:55:53;;;;;;;29.87;20.40;;;1.50;99.90;;;;;;5012435;28;20417;-77
2023/03/02 02:58:29;;;;;;;27.80;20.10;;;1.50;99.90;;;;;;5011976;28;20391;-77
2023/03/02 03:00:55;;;;;;;27.27;20.63;;;1.30;99.90;;;;;;5012511;28;20379;-77
2023/03/02 03:03:35;;;;;;;27.47;19.57;;;1.50;99.90;;;;;;5011098;28;20399;-77
2023/03/02 03:06:04;;;;;;;28.58;20.73;;;1.60;99.90;;;;;;5011913;28;20391;-77
2023/03/02 03:08:42;;;;;;;26.08;19.95;;;1.40;99.90;;;;;;5011398;28;20387;-77
2023/03/02 03:11:09;;;;;;;31.05;20.88;;;1.70;99.90;;;;;;5011220;28;20399;-77
2023/03/02 03:13:36;;;;;;;32.17;21.20;;;1.80;99.90;;;;;;5012078;28;20400;-78
2023/03/02 03:16:02;;;;;;;27.80;20.73;;;1.40;99.90;;;;;;5009772;28;20873;-78
2023/03/02 03:18:30;;;;;;;27.55;18.67;;;1.60;96.90;;;;;;5011446;28;20395;-78
2023/03/02 03:20:56;;;;;;;28.02;19.67;;;1.50;96.10;;;;;;5011474;28;20387;-77
2023/03/02 03:23:22;;;;;;;26.30;20.08;;;1.50;99.90;;;;;;5011824;28;20424;-77
2023/03/02 03:25:48;;;;;;;28.80;20.42;;;1.20;99.90;;;;;;5011605;28;20391;-77
2023/03/02 03:28:14;;;;;;;28.10;20.20;;;1.50;99.90;;;;;;5011440;28;20401;-77
2023/03/02 03:30:40;;;;;;;26.00;20.15;;;1.50;99.90;;;;;;5011373;28;20479;-77
2023/03/02 03:33:09;;;;;;;27.80;20.92;;;1.60;99.90;;;;;;5011782;28;20389;-77
2023/03/02 03:35:36;;;;;;;26.40;19.90;;;1.30;99.90;;;;;;5011023;28;20414;-78
2023/03/02 03:38:02;;;;;;;25.48;19.55;;;1.80;99.90;;;;;;5011411;28;20377;-78
2023/03/02 03:40:27;;;;;;;25.93;19.63;;;1.40;99.90;;;;;;5009950;28;20406;-78
2023/03/02 03:42:53;;;;;;;28.15;19.75;;;2.10;99.20;;;;;;5011360;28;20385;-78
2023/03/02 03:45:19;;;;;;;27.42;20.67;;;1.40;99.90;;;;;;5011666;28;20755;-78
2023/03/02 03:47:44;;;;;;;28.75;19.90;;;1.30;99.90;;;;;;5011078;28;20402;-78
2023/03/02 03:50:10;;;;;;;27.25;19.27;;;1.60;99.90;;;;;;5024816;28;20397;-78
2023/03/02 03:52:36;;;;;;;27.40;18.70;;;1.30;99.90;;;;;;5011547;28;20416;-78
2023/03/02 03:55:02;;;;;;;27.70;19.77;;;0.90;99.90;;;;;;5010547;28;20373;-77
2023/03/02 03:57:28;;;;;;;27.50;19.77;;;1.60;99.90;;;;;;5013620;28;20419;-78
2023/03/02 03:59:54;;;;;;;25.38;18.98;;;1.30;99.90;;;;;;5015543;28;20397;-78
2023/03/02 04:02:21;;;;;;;28.05;20.80;;;2.00;99.90;;;;;;5015569;28;20396;-78
2023/03/02 04:04:46;;;;;;;27.00;20.33;;;1.50;99.90;;;;;;5015307;28;20414;-78
2023/03/02 04:07:13;;;;;;;27.67;18.70;;;1.40;87.60;;;;;;5014965;28;20798;-78
2023/03/02 04:09:39;;;;;;;25.88;19.40;;;1.60;72.20;;;;;;5013910;28;20396;-78
2023/03/02 04:12:06;;;;;;;29.33;20.05;;;1.40;99.00;;;;;;5016812;28;20408;-79
2023/03/02 04:14:31;;;;;;;27.67;20.52;;;1.60;99.90;;;;;;5016653;28;20388;-78
2023/03/02 04:16:57;;;;;;;25.27;19.40;;;1.20;99.90;;;;;;5016332;28;20405;-79
2023/03/02 04:19:23;;;;;;;24.97;19.20;;;1.20;99.90;;;;;;5016020;28;20388;-79
2023/03/02 04:21:52;;;;;;;28.00;19.08;;;1.10;99.90;;;;;;5013699;28;20404;-79
2023/03/02 04:24:19;;;;;;;23.13;18.27;;;1.80;99.90;;;;;;5014278;28;20439;-78
2023/03/02 04:26:47;;;;;;;25.77;18.73;;;1.40;99.90;;;;;;5016446;28;20485;-77
2023/03/02 04:29:13;;;;;;;24.88;18.13;;;1.20;99.90;;;;;;5024868;28;20417;-77
2023/03/02 04:31:39;;;;;;;29.95;21.00;;;1.60;99.90;;;;;;5028157;28;20387;-77
2023/03/02 04:34:06;;;;;;;23.20;18.80;;;1.20;99.90;;;;;;5035913;28;20391;-77
2023/03/02 04:36:33;;;;;;;26.83;18.70;;;1.40;93.70;;;;;;5038304;28;20492;-77
2023/03/02 04:38:59;;;;;;;27.40;20.33;;;1.30;91.70;;;;;;5028427;28;20493;-77
2023/03/02 04:41:24;;;;;;;26.83;19.08;;;1.20;97.00;;;;;;5016813;28;20420;-77
2023/03/02 04:43:51;;;;;;;25.30;18.25;;;1.30;62.10;;;;;;5016925;28;20464;-77
2023/03/02 04:46:24;;;;;;;27.13;18.52;;;1.00;92.50;;;;;;5015863;28;20381;-77
2023/03/02 04:48:50;;;;;;;25.38;18.90;;;1.10;99.90;;;;;;5015764;28;20389;-77
2023/03/02 04:51:23;;;;;;;25.75;20.05;;;1.60;99.90;;;;;;5014585;28;20420;-77
2023/03/02 04:53:57;;;;;;;25.40;18.77;;;1.20;99.90;;;;;;5013981;28;20474;-77
2023/03/02 04:56:23;;;;;;;23.42;18.42;;;1.10;99.90;;;;;;5015583;28;20447;-77
2023/03/02 04:58:48;;;;;;;25.55;18.65;;;1.20;99.90;;;;;;5015220;28;20432;-77
2023/03/02 05:01:16;;;;;;;27.30;19.30;;;1.20;99.90;;;;;;5015508;28;20801;-77
2023/03/02 05:03:42;;;;;;;29.13;19.80;;;0.90;99.90;;;;;;5016077;28;20638;-78
2023/03/02 05:06:08;;;;;;;26.30;19.48;;;1.30;99.90;;;;;;5014609;28;20395;-77
2023/03/02 05:08:34;;;;;;;23.52;18.58;;;-1.00;79.60;;;;;;5013352;28;20816;-77
2023/03/02 05:11:00;;;;;;;24.00;18.55;;;1.20;98.80;;;;;;5013887;28;20440;-77
2023/03/02 05:13:26;;;;;;;25.05;18.92;;;1.30;98.20;;;;;;5014660;28;20404;-77
2023/03/02 05:15:52;;;;;;;25.98;20.17;;;1.40;43.70;;;;;;5013009;28;20397;-78
2023/03/02 05:18:19;;;;;;;25.67;18.80;;;1.10;99.90;;;;;;5016410;28;20446;-78
2023/03/02 05:20:45;;;;;;;26.80;18.52;;;1.10;99.90;;;;;;5016826;28;20925;-78
2023/03/02 05:23:22;;;;;;;29.52;19.77;;;1.10;99.90;;;;;;5021004;28;20397;-78
2023/03/02 05:25:55;;;;;;;26.05;19.45;;;1.50;99.90;;;;;;5023947;28;20421;-78
2023/03/02 05:28:23;;;;;;;26.27;19.27;;;1.30;99.90;;;;;;5037873;22;21166;-74
2023/03/02 05:30:49;;;;;;;28.00;20.53;;;;;;;;;;5013277;28;20389;-75
2023/03/02 05:33:15;;;;;;;27.75;20.40;;;0.70;99.90;;;;;;5013471;28;20395;-73
2023/03/02 05:35:41;;;;;;;26.25;18.50;;;1.20;99.90;;;;;;5013474;28;20400;-73
2023/03/02 05:38:08;;;;;;;26.45;19.02;;;;;;;;;;5014025;28;20389;-74
2023/03/02 05:40:34;;;;;;;27.00;19.80;;;1.00;99.90;;;;;;5014250;28;20388;-75
2023/03/02 05:43:00;;;;;;;27.90;19.20;;;;;;;;;;5013983;28;20380;-74
2023/03/02 05:45:33;;;;;;;26.80;19.90;;;0.90;99.90;;;;;;5013303;28;20471;-73
2023/03/02 05:47:59;;;;;;;25.85;19.50;;;;;;;;;;5012915;28;20389;-73
2023/03/02 05:50:25;;;;;;;29.10;20.65;;;1.10;99.90;;;;;;5013020;28;20389;-75
2023/03/02 05:52:51;;;;;;;26.23;20.63;;;;;;;;;;5010770;28;20385;-74
2023/03/02 05:55:17;;;;;;;27.02;20.92;;;1.20;99.90;;;;;;5011975;28;20428;-74
2023/03/02 05:57:44;;;;;;;29.75;20.70;;;;;;;;;;5013083;28;20404;-74
2023/03/02 06:00:11;;;;;;;28.70;20.83;;;1.10;99.90;;;;;;5012937;28;20755;-75
2023/03/02 06:02:38;;;;;;;28.15;20.20;;;;;;;;;;5012639;28;20870;-75
2023/03/02 06:05:05;;;;;;;27.55;19.88;;;1.10;99.90;;;;;;5013343;28;20373;-75
2023/03/02 06:07:30;;;;;;;29.42;21.30;;;1.30;99.90;;;;;;5000315;28;20452;-75
2023/03/02 06:09:56;;;;;;;27.52;20.90;;;1.10;99.90;;;;;;5001977;28;20436;-75
2023/03/02 06:12:22;;;;;;;30.05;21.10;;;;;;;;;;5012258;28;20506;-75
2023/03/02 06:14:47;;;;;;;28.52;21.70;;;1.30;99.90;;;;;;5013185;28;20432;-75
2023/03/02 06:17:13;;;;;;;27.37;20.67;;;1.60;99.90;;;;;;5012805;28;20412;-75
2023/03/02 06:19:38;;;;;;;29.47;21.60;;;1.40;99.90;;;;;;5012109;28;20490;-75
2023/03/02 06:22:04;;;;;;;26.30;19.30;;;;;;;;;;5012976;28;20385;-75
2023/03/02 06:24:30;;;;;;;26.97;20.13;;;1.60;99.90;;;;;;5013090;28;20373;-75
2023/03/02 06:26:55;;;;;;;27.03;20.90;;;1.30;97.60;;;;;;5012732;28;20396;-75
2023/03/02 06:29:22;;;;;;;28.07;20.80;;;1.00;99.90;;;;;;5012566;28;20396;-75
2023/03/02 06:31:48;;;;;;;27.25;20.80;;;1.40;99.90;;;;;;4999395;28;20401;-75
2023/03/02 06:34:14;;;;;;;27.03;20.07;;;1.80;99.90;;;;;;4992816;28;20397;-75
2023/03/02 06:36:39;;;;;;;27.05;20.90;;;1.30;99.90;;;;;;5004047;28;20415;-75
2023/03/02 06:39:07;;;;;;;25.98;20.27;;;1.40;99.90;;;;;;5012487;28;20385;-75
2023/03/02 06:41:32;;;;;;;26.77;21.63;;;1.40;99.90;;;;;;5010904;28;20879;-75
2023/03/02 06:44:01;;;;;;;24.07;19.67;;;1.60;99.90;;;;;;5012087;28;20403;-74
2023/03/02 06:46:26;;;;;;;27.85;20.08;;;1.50;99.90;;;;;;5013053;28;20392;-75
2023/03/02 06:48:52;;;;;;;27.87;20.53;;;;;;;;;;5014251;28;20762;-75
2023/03/02 06:51:18;;;;;;;28.33;20.53;;;1.40;73.20;;;;;;5010854;28;20403;-75
2023/03/02 06:53:43;;;;;;;28.80;20.43;;;3.10;99.90;;;;;;5012586;28;20393;-75
2023/03/02 06:56:09;;;;;;;26.43;20.00;;;1.60;96.90;;;;;;5012212;28;20457;-75
2023/03/02 06:58:36;;;;;;;27.70;20.63;;;1.80;62.20;;;;;;5011902;28;20411;-75
2023/03/02 07:01:02;;;;;;;26.53;20.47;;;;;;;;;;5012827;28;20443;-75
2023/03/02 07:03:28;;;;;;;27.63;20.33;;;;;;;;;;5014299;28;20424;-75
2023/03/02 07:05:54;;;;;;;26.23;21.37;;;;;;;;;;5011642;28;20828;-75
2023/03/02 07:08:19;;;;;;;25.75;20.15;;;1.70;1.00;;;;;;5012533;28;20424;-75
2023/03/02 07:10:45;;;;;;;28.90;19.58;;;1.80;1.00;;;;;;5006697;28;20391;-75
2023/03/02 07:13:10;;;;;;;30.77;20.42;;;1.50;99.90;;;;;;5003436;28;20401;-75
2023/03/02 07:15:38;;;;;;;29.30;21.23;;;1.60;94.00;;;;;;5011243;28;20384;-75
2023/03/02 07:18:04;;;;;;;29.63;21.20;;;;;;;;;;5011427;28;20464;-75
2023/03/02 07:20:29;;;;;;;30.70;21.70;;;1.80;52.30;;;;;;5011563;28;20451;-75
2023/03/02 07:22:56;;;;;;;29.73;21.30;;;1.80;78.50;;;;;;5011380;28;20381;-75
2023/03/02 07:25:21;;;;;;;27.25;21.25;;;1.90;60.20;;;;;;5009872;28;20389;-75
2023/03/02 07:27:47;;;;;;;27.77;21.02;;;;;;;;;;5011248;28;20395;-75
2023/03/02 07:30:14;;;;;;;30.38;21.77;;;2.10;4.10;;;;;;5011950;28;20479;-75
2023/03/02 07:32:40;;;;;;;27.55;21.23;;;3.00;13.20;;;;;;5013106;28;20952;-75
2023/03/02 07:35:06;;;;;;;34.00;21.35;;;;;;;;;;5016009;28;20454;-75
2023/03/02 07:37:31;;;;;;;31.25;22.38;;;1.80;81.40;;;;;;5016250;28;20822;-75
2023/03/02 07:39:57;;;;;;;29.80;21.93;;;1.50;89.00;;;;;;5016479;28;20391;-75
2023/03/02 07:42:22;;;;;;;31.80;22.20;;;2.30;75.90;;;;;;5016502;28;20389;-75
2023/03/02 07:44:50;;;;;;;30.40;21.80;;;1.90;42.40;;;;;;5015457;28;20392;-75
2023/03/02 07:47:15;;;;;;;30.20;21.38;;;2.00;1.00;;;;;;5015161;28;20428;-75
2023/03/02 07:49:41;;;;;;;27.53;21.63;;;2.00;18.70;;;;;;5015288;28;20393;-75
2023/03/02 07:52:06;;;;;;;29.57;21.53;;;2.30;1.00;;;;;;5016192;28;20962;-75
2023/03/02 07:54:32;;;;;;;28.98;21.15;;;2.40;1.00;;;;;;5014849;28;20389;-75
2023/03/02 07:56:58;;;;;;;29.05;21.98;;;2.20;1.00;;;;;;5014644;28;20397;-75
2023/03/02 07:59:24;;;;;;;29.73;21.98;;;2.10;1.00;;;;;;5014409;28;20419;-75
2023/03/02 08:01:49;;;;;;;30.15;21.73;;;2.20;1.00;;;;;;5014988;28;20415;-75
2023/03/02 08:04:15;;;;;;;28.40;23.03;;;2.30;1.00;;;;;;5013631;28;20485;-75
2023/03/02 08:06:40;;;;;;;28.70;22.03;;;2.30;1.00;;;;;;5009176;28;20390;-74
2023/03/02 08:09:06;;;;;;;30.50;21.60;;;2.50;1.00;;;;;;5010643;28;20479;-75
2023/03/02 08:11:32;;;;;;;32.20;22.90;;;2.20;1.00;;;;;;5014749;28;20396;-75
2023/03/02 08:14:01;;;;;;;28.73;22.47;;;2.20;1.00;;;;;;5014286;28;20447;-76
2023/03/02 08:16:27;;;;;;;31.38;22.27;;;2.20;1.00;;;;;;5014565;28;20440;-75
2023/03/02 08:18:52;;;;;;;30.37;22.37;;;2.40;1.00;;;;;;5014570;28;20428;-76
2023/03/02 08:21:21;;;;;;;31.77;23.00;;;2.40;1.00;;;;;;5014771;28;20393;-75
2023/03/02 08:23:47;;;;;;;32.65;23.63;;;2.50;1.00;;;;;;4995499;28;20390;-76
2023/03/02 08:26:13;;;;;;;27.63;22.75;;;2.70;1.00;;;;;;5010565;28;20979;-75
2023/03/02 08:28:39;;;;;;;33.30;22.92;;;2.50;1.00;;;;;;4994952;28;20408;-75
2023/03/02 08:31:06;;;;;;;36.10;23.42;;;2.50;1.00;;;;;;5005899;28;20435;-75
2023/03/02 08:33:33;;;;;;;30.20;23.30;;;2.60;1.00;;;;;;5012928;28;20928;-75
2023/03/02 08:36:04;;;;;;;32.70;22.98;;;2.80;1.00;;;;;;5012828;28;20405;-76
2023/03/02 08:38:30;;;;;;;32.60;23.13;;;2.80;1.00;;;;;;5015079;28;20515;-74
2023/03/02 08:40:56;;;;;;;31.73;21.83;;;2.60;1.00;;;;;;5013848;28;20397;-74
2023/03/02 08:43:24;;;;;;;29.67;22.60;;;2.90;1.00;;;;;;5013919;28;20539;-75
2023/03/02 08:45:56;;;;;;;38.85;23.83;;;2.60;1.00;;;;;;5015219;28;20446;-74
2023/03/02 08:48:22;;;;;;;30.92;23.40;;;2.60;1.00;;;;;;5023810;28;20750;-74
2023/03/02 08:50:55;;;;;;;36.00;23.10;;;2.40;1.00;;;;;;5033310;28;20889;-74
2023/03/02 08:53:21;;;;;;;29.48;22.80;;;3.00;1.00;;;;;;5033081;28;20398;-74
2023/03/02 08:55:46;;;;;;;30.08;22.77;;;2.90;1.00;;;;;;5033357;28;20419;-74
2023/03/02 08:58:12;;;;;;;31.23;22.48;;;2.80;1.00;;;;;;5021303;28;20408;-74
2023/03/02 09:00:37;;;;;;;30.73;22.67;;;2.70;1.00;;;;;;5013477;28;20875;-74
2023/03/02 09:03:03;;;;;;;29.13;22.05;;;3.50;1.00;;;;;;5013328;28;20405;-73
2023/03/02 09:05:28;;;;;;;32.25;23.58;;;3.00;1.00;;;;;;5013180;28;20392;-74
2023/03/02 09:07:54;;;;;;;35.00;25.40;;;2.50;1.00;;;;;;4997901;28;20387;-74
2023/03/02 09:10:19;;;;;;;31.10;22.83;;;2.50;1.00;;;;;;4993798;28;20399;-74
2023/03/02 09:12:45;;;;;;;30.87;22.70;;;2.90;1.00;;;;;;4993849;28;20421;-75
2023/03/02 09:15:10;;;;;;;30.90;22.17;;;2.60;1.00;;;;;;4994300;28;20386;-74
2023/03/02 09:17:36;;;;;;;30.70;22.70;;;2.90;1.00;;;;;;5012494;28;20419;-75
2023/03/02 09:20:01;;;;;;;32.70;23.23;;;2.60;1.00;;;;;;5013183;28;20443;-75
2023/03/02 09:22:27;;;;;;;29.00;21.80;;;3.50;1.00;;;;;;5013251;28;20404;-75
2023/03/02 09:24:53;;;;;;;30.77;22.70;;;2.90;1.00;;;;;;5013171;28;20388;-75
2023/03/02 09:27:19;;;;;;;32.10;24.60;;;;;;;;;;5012828;28;20388;-74
2023/03/02 09:29:44;;;;;;;34.20;24.40;;;2.70;1.00;;;;;;5012591;28;20389;-75
2023/03/02 09:32:10;;;;;;;29.40;22.80;;;2.70;1.00;;;;;;5012575;28;20423;-75
2023/03/02 09:34:36;;;;;;;36.00;23.20;;;3.10;1.00;;;;;;5012011;28;20954;-75
2023/03/02 09:37:02;;;;;;;31.35;23.20;;;;;;;;;;5012411;28;20436;-75
2023/03/02 09:39:28;;;;;;;30.38;22.77;;;3.10;1.00;;;;;;5012892;28;20421;-74
2023/03/02 09:42:13;;;;;;;33.13;24.17;;;2.70;1.00;;;;;;5012787;28;20823;-75
2023/03/02 09:44:49;;;;;;;30.67;22.98;;;3.30;1.00;;;;;;5012584;28;20388;-74
2023/03/02 09:47:31;;;;;;;34.33;24.55;;;3.10;99.90;;;;;;5012457;28;21010;-75
2023/03/02 09:50:23;;;;;;;31.27;23.20;;;2.90;1.00;;;;;;5012376;28;20994;-75
2023/03/02 09:53:07;;;;;;;32.20;23.80;;;3.20;1.00;;;;;;5012653;28;20400;-75
2023/03/02 09:55:35;;;;;;;32.67;24.20;;;3.20;1.00;;;;;;5011840;28;20875;-75
2023/03/02 09:58:04;;;;;;;27.08;22.73;;;;;;;;;;5012582;28;20389;-75
2023/03/02 10:00:35;;;;;;;30.43;22.13;;;3.60;99.90;;;;;;5012171;28;20463;-75
2023/03/02 10:03:13;;;;;;;31.92;23.35;;;3.90;99.90;;;;;;5012796;28;20385;-75
2023/03/02 10:05:42;;;;;;;28.92;22.95;;;3.60;90.60;;;;;;5012353;28;20428;-75
2023/03/02 10:08:20;;;;;;;34.33;23.65;;;3.80;99.90;;;;;;4995637;28;20386;-75
2023/03/02 10:11:10;;;;;;;34.00;23.88;;;3.40;99.90;;;;;;4993705;28;20913;-75
2023/03/02 10:13:42;;;;;;;32.37;23.93;;;3.40;13.70;;;;;;4992916;28;20459;-75
2023/03/02 10:16:12;;;;;;;30.42;24.20;;;3.50;99.90;;;;;;4991918;28;20405;-75
2023/03/02 10:18:45;;;;;;;30.10;23.63;;;3.70;1.00;;;;;;4992636;28;20482;-75
2023/03/02 10:21:22;;;;;;;37.25;25.08;;;3.80;1.00;;;;;;5012737;28;20864;-75
2023/03/02 10:24:01;;;;;;;30.20;22.95;;;3.70;1.00;;;;;;5012104;28;21042;-75
2023/03/02 10:26:33;;;;;;;30.70;22.98;;;3.80;1.00;;;;;;5012579;28;20389;-75
2023/03/02 10:29:24;;;;;;;34.22;25.52;;;3.50;1.00;;;;;;5012843;28;20404;-75
2023/03/02 10:32:04;;;;;;;32.25;25.20;;;3.40;99.90;;;;;;5012510;28;20396;-75
2023/03/02 10:34:30;;;;;;;34.08;23.40;;;3.80;1.00;;;;;;5012326;28;20514;-75
2023/03/02 10:36:57;;;;;;;34.03;23.50;;;4.10;99.90;;;;;;5012052;28;20884;-75
2023/03/02 10:39:22;;;;;;;31.77;24.20;;;4.40;96.40;;;;;;5012093;28;20484;-75
2023/03/02 10:42:01;;;;;;;38.43;24.60;;;4.20;1.00;;;;;;5011968;28;20874;-75
2023/03/02 10:44:36;;;;;;;31.88;25.70;;;4.00;1.00;;;;;;5011341;28;20397;-74
2023/03/02 10:47:03;;;;;;;31.55;23.55;;;4.10;99.90;;;;;;5011857;28;20431;-75
2023/03/02 10:49:40;;;;;;;34.25;24.33;;;4.00;99.90;;;;;;5012100;28;20389;-74
2023/03/02 10:52:20;;;;;;;31.60;23.65;;;4.40;73.10;;;;;;5011794;28;20392;-75
2023/03/02 10:54:49;;;;;;;32.17;25.60;;;4.70;99.90;;;;;;5011098;28;20405;-75
2023/03/02 10:57:35;;;;;;;33.15;23.73;;;4.40;99.90;;;;;;5009857;28;20847;-74
2023/03/02 11:00:12;;;;;;;32.43;23.97;;;4.40;1.00;;;;;;5011639;28;20396;-75
2023/03/02 11:02:37;;;;;;;33.88;24.63;;;4.30;1.00;;;;;;5011634;28;20385;-75
2023/03/02 11:05:29;;;;;;;32.50;25.10;;;4.40;99.90;;;;;;5009981;28;20381;-75
2023/03/02 11:08:03;;;;;;;31.23;25.27;;;4.20;73.10;;;;;;5010821;28;20828;-75
2023/03/02 11:10:38;;;;;;;35.50;25.00;;;4.30;1.00;;;;;;5010909;28;20412;-75
2023/03/02 11:13:22;;;;;;;31.23;25.10;;;4.50;1.00;;;;;;5010199;28;20384;-75
2023/03/02 11:15:51;;;;;;;33.97;25.45;;;4.80;1.00;;;;;;5011226;28;20435;-75
2023/03/02 11:18:33;;;;;;;33.65;25.00;;;4.60;1.00;;;;;;5010008;28;20397;-75
2023/03/02 11:21:17;;;;;;;31.02;23.85;;;4.80;99.90;;;;;;5011465;28;20407;-75
2023/03/02 11:24:07;;;;;;;32.95;25.83;;;4.90;99.90;;;;;;5011478;28;20939;-75
2023/03/02 11:26:35;;;;;;;31.13;24.50;;;5.20;99.90;;;;;;5009872;28;20401;-75
2023/03/02 11:29:15;;;;;;;32.95;24.58;;;5.10;1.00;;;;;;5037192;22;21579;-81
2023/03/02 11:31:47;;;;;;;34.80;24.98;;;5.30;1.00;;;;;;5043040;28;20757;-81
2023/03/02 11:34:33;;;;;;;33.00;24.25;;;4.90;99.90;;;;;;5043529;28;20790;-82
2023/03/02 11:37:20;;;;;;;33.63;24.85;;;5.20;1.00;;;;;;5041294;28;20403;-82
2023/03/02 11:39:48;;;;;;;32.13;24.50;;;5.30;97.50;;;;;;5041169;28;20430;-81
2023/03/02 11:42:39;;;;;;;32.45;24.98;;;5.00;1.00;;;;;;5040884;28;20426;-81
2023/03/02 11:45:13;;;;;;;30.58;24.15;;;5.50;21.70;;;;;;5042508;28;20974;-82
2023/03/02 11:47:51;;;;;;;33.53;24.40;;;5.70;99.90;;;;;;5041777;28;20406;-81
2023/03/02 11:50:16;;;;;;;30.63;25.23;;;5.10;80.90;;;;;;5043535;28;20469;-81
2023/03/02 11:52:49;;;;;;;33.10;25.03;;;5.60;1.00;;;;;;5042052;28;20399;-80
2023/03/02 11:55:21;;;;;;;31.42;24.95;;;5.40;1.00;;;;;;5043193;28;20394;-80
2023/03/02 11:58:02;;;;;;;29.38;24.52;;;5.40;1.00;;;;;;5058165;28;20458;-81
2023/03/02 12:00:35;;;;;;;30.20;24.90;;;5.70;1.00;;;;;;5043127;28;20418;-82
2023/03/02 12:03:14;;;;;;;34.33;25.70;;;5.50;1.00;;;;;;5042081;28;20447;-82
2023/03/02 12:05:44;;;;;;;32.20;24.40;;;5.70;99.90;;;;;;5041252;28;20810;-81
2023/03/02 12:08:19;;;;;;;29.83;23.73;;;5.90;1.00;;;;;;5043302;28;20493;-81
2023/03/02 12:11:26;;;;;;;30.42;25.35;;;5.80;1.00;;;;;;5041077;28;20383;-80
2023/03/02 12:14:02;;;;;;;33.40;24.65;;;5.90;99.90;;;;;;5032212;28;20903;-80
2023/03/02 12:16:36;;;;;;;32.17;24.85;;;6.80;86.90;;;;;;5026388;28;20409;-81
2023/03/02 12:19:26;;;;;;;30.23;23.65;;;6.20;99.90;;;;;;5030221;28;20401;-81
2023/03/02 12:21:57;;;;;;;30.65;23.48;;;6.30;33.20;;;;;;5040897;28;20455;-81
2023/03/02 12:24:31;;;;;;;33.03;24.88;;;6.20;1.00;;;;;;5036676;28;20403;-81
2023/03/02 12:27:25;;;;;;;31.83;25.45;;;6.10;1.00;;;;;;5044585;28;20415;-79
2023/03/02 12:30:14;;;;;;;30.45;25.00;;;6.20;99.90;;;;;;5039394;28;20573;-80
2023/03/02 12:32:42;;;;;;;31.67;24.37;;;6.30;1.00;;;;;;5025686;28;20469;-81
2023/03/02 12:35:07;;;;;;;31.08;24.08;;;5.80;62.20;;;;;;5046562;28;20387;-80
2023/03/02 12:37:47;;;;;;;30.07;24.53;;;5.90;1.00;;;;;;5044753;28;20461;-80
2023/03/02 12:40:19;;;;;;;34.00;24.52;;;6.00;1.00;;;;;;5045141;28;20426;-80
2023/03/02 12:43:12;;;;;;;33.72;25.20;;;5.90;1.00;;;;;;5044305;28;20486;-81
2023/03/02 12:45:50;;;;;;;32.78;25.55;;;5.60;99.90;;;;;;5045732;28;20398;-80
2023/03/02 12:48:29;;;;;;;31.77;25.23;;;5.80;99.90;;;;;;5044706;28;20505;-80
2023/03/02 12:51:01;;;;;;;33.72;25.02;;;5.50;99.90;;;;;;5046394;28;20446;-80
2023/03/02 12:53:26;;;;;;;31.95;24.38;;;5.70;99.90;;;;;;5044837;28;20391;-80
2023/03/02 12:55:52;;;;;;;33.40;25.60;;;;;;;;;;5044207;28;20433;-80
2023/03/02 12:58:21;;;;;;;33.53;24.60;;;6.30;1.00;;;;;;5045335;28;20417;-81